sensor_id;sensor_type;location;lat;lon;timestamp;P1;durP1;ratioP1;P2;durP2;ratioP2
72797;SDS011;61084;55.816;37.036;2022-08-21T00:00:53;21.80;;;12.32;;
72797;SDS011;61084;55.816;37.036;2022-08-21T00:03:18;22.10;;;12.32;;
72797;SDS011;61084;55.816;37.036;2022-08-21T00:05:46;20.42;;;11.45;;
72797;SDS011;61084;55.816;37.036;2022-08-21T00:08:15;18.00;;;11.52;;
72797;SDS011;61084;55.816;37.036;2022-08-21T00:10:42;23.08;;;10.95;;
72797;SDS011;61084;55.816;37.036;2022-08-21T00:13:09;25.65;;;12.45;;
72797;SDS011;61084;55.816;37.036;2022-08-21T00:15:37;23.65;;;11.02;;
72797;SDS011;61084;55.816;37.036;2022-08-21T00:18:04;23.13;;;11.73;;
72797;SDS011;61084;55.816;37.036;2022-08-21T00:20:31;22.35;;;12.68;;
72797;SDS011;61084;55.816;37.036;2022-08-21T00:22:58;25.35;;;13.13;;
72797;SDS011;61084;55.816;37.036;2022-08-21T00:25:24;23.60;;;13.50;;
72797;SDS011;61084;55.816;37.036;2022-08-21T00:27:51;26.48;;;13.40;;
72797;SDS011;61084;55.816;37.036;2022-08-21T00:30:17;25.80;;;13.60;;
72797;SDS011;61084;55.816;37.036;2022-08-21T00:32:44;26.65;;;13.68;;
72797;SDS011;61084;55.816;37.036;2022-08-21T00:35:11;26.20;;;14.68;;
72797;SDS011;61084;55.816;37.036;2022-08-21T00:37:40;28.05;;;13.20;;
72797;SDS011;61084;55.816;37.036;2022-08-21T00:40:07;27.25;;;14.40;;
72797;SDS011;61084;55.816;37.036;2022-08-21T00:42:37;27.40;;;13.38;;
72797;SDS011;61084;55.816;37.036;2022-08-21T00:45:03;29.73;;;15.68;;
72797;SDS011;61084;55.816;37.036;2022-08-21T00:47:30;26.40;;;15.68;;
72797;SDS011;61084;55.816;37.036;2022-08-21T00:49:56;28.48;;;15.55;;
72797;SDS011;61084;55.816;37.036;2022-08-21T00:52:23;32.17;;;16.98;;
72797;SDS011;61084;55.816;37.036;2022-08-21T00:54:52;30.70;;;14.80;;
72797;SDS011;61084;55.816;37.036;2022-08-21T00:57:21;33.22;;;16.10;;
72797;SDS011;61084;55.816;37.036;2022-08-21T00:59:56;34.22;;;16.50;;
72797;SDS011;61084;55.816;37.036;2022-08-21T01:02:25;28.65;;;15.55;;
72797;SDS011;61084;55.816;37.036;2022-08-21T01:04:51;32.92;;;17.33;;
72797;SDS011;61084;55.816;37.036;2022-08-21T01:07:17;38.03;;;18.98;;
72797;SDS011;61084;55.816;37.036;2022-08-21T01:09:46;35.75;;;18.83;;
72797;SDS011;61084;55.816;37.036;2022-08-21T01:12:12;36.17;;;18.80;;
72797;SDS011;61084;55.816;37.036;2022-08-21T01:14:40;38.72;;;21.02;;
72797;SDS011;61084;55.816;37.036;2022-08-21T01:17:08;33.17;;;19.58;;
72797;SDS011;61084;55.816;37.036;2022-08-21T01:19:35;36.20;;;20.25;;
72797;SDS011;61084;55.816;37.036;2022-08-21T01:22:01;39.95;;;20.25;;
72797;SDS011;61084;55.816;37.036;2022-08-21T01:24:28;35.85;;;19.70;;
72797;SDS011;61084;55.816;37.036;2022-08-21T01:26:54;38.15;;;20.58;;
72797;SDS011;61084;55.816;37.036;2022-08-21T01:29:29;34.42;;;20.13;;
72797;SDS011;61084;55.816;37.036;2022-08-21T01:32:02;38.45;;;20.92;;
72797;SDS011;61084;55.816;37.036;2022-08-21T01:34:31;38.97;;;20.75;;
72797;SDS011;61084;55.816;37.036;2022-08-21T01:36:58;39.50;;;22.75;;
72797;SDS011;61084;55.816;37.036;2022-08-21T01:39:24;35.45;;;19.50;;
72797;SDS011;61084;55.816;37.036;2022-08-21T01:41:49;42.30;;;20.65;;
72797;SDS011;61084;55.816;37.036;2022-08-21T01:44:15;39.67;;;22.13;;
72797;SDS011;61084;55.816;37.036;2022-08-21T01:46:41;45.92;;;24.92;;
72797;SDS011;61084;55.816;37.036;2022-08-21T01:49:07;37.53;;;23.42;;
72797;SDS011;61084;55.816;37.036;2022-08-21T01:51:33;43.50;;;24.50;;
72797;SDS011;61084;55.816;37.036;2022-08-21T01:53:59;39.05;;;24.77;;
72797;SDS011;61084;55.816;37.036;2022-08-21T01:56:25;43.33;;;24.08;;
72797;SDS011;61084;55.816;37.036;2022-08-21T01:58:53;50.08;;;25.80;;
72797;SDS011;61084;55.816;37.036;2022-08-21T02:01:18;41.85;;;25.25;;
72797;SDS011;61084;55.816;37.036;2022-08-21T02:03:44;49.70;;;26.42;;
72797;SDS011;61084;55.816;37.036;2022-08-21T02:06:15;45.78;;;25.88;;
72797;SDS011;61084;55.816;37.036;2022-08-21T02:08:43;47.55;;;27.98;;
72797;SDS011;61084;55.816;37.036;2022-08-21T02:11:09;42.22;;;25.45;;
72797;SDS011;61084;55.816;37.036;2022-08-21T02:13:34;49.58;;;27.67;;
72797;SDS011;61084;55.816;37.036;2022-08-21T02:16:00;41.22;;;24.17;;
72797;SDS011;61084;55.816;37.036;2022-08-21T02:18:26;54.33;;;29.30;;
72797;SDS011;61084;55.816;37.036;2022-08-21T02:20:52;45.15;;;25.05;;
72797;SDS011;61084;55.816;37.036;2022-08-21T02:23:17;47.75;;;26.52;;
72797;SDS011;61084;55.816;37.036;2022-08-21T02:25:43;51.45;;;28.48;;
72797;SDS011;61084;55.816;37.036;2022-08-21T02:28:11;49.15;;;28.63;;
72797;SDS011;61084;55.816;37.036;2022-08-21T02:30:40;47.75;;;28.38;;
72797;SDS011;61084;55.816;37.036;2022-08-21T02:33:09;43.10;;;26.60;;
72797;SDS011;61084;55.816;37.036;2022-08-21T02:35:36;47.25;;;28.25;;
72797;SDS011;61084;55.816;37.036;2022-08-21T02:38:05;50.25;;;25.48;;
72797;SDS011;61084;55.816;37.036;2022-08-21T02:40:34;47.22;;;28.27;;
72797;SDS011;61084;55.816;37.036;2022-08-21T02:43:03;47.20;;;28.63;;
72797;SDS011;61084;55.816;37.036;2022-08-21T02:45:30;54.53;;;28.65;;
72797;SDS011;61084;55.816;37.036;2022-08-21T02:48:01;57.50;;;28.75;;
72797;SDS011;61084;55.816;37.036;2022-08-21T02:50:31;53.25;;;28.45;;
72797;SDS011;61084;55.816;37.036;2022-08-21T02:52:59;51.65;;;29.40;;
72797;SDS011;61084;55.816;37.036;2022-08-21T02:55:26;50.58;;;25.75;;
72797;SDS011;61084;55.816;37.036;2022-08-21T02:57:54;49.30;;;27.13;;
72797;SDS011;61084;55.816;37.036;2022-08-21T03:00:21;49.95;;;28.80;;
72797;SDS011;61084;55.816;37.036;2022-08-21T03:02:50;46.25;;;27.90;;
72797;SDS011;61084;55.816;37.036;2022-08-21T03:07:43;45.92;;;27.25;;
72797;SDS011;61084;55.816;37.036;2022-08-21T03:10:10;52.03;;;28.17;;
72797;SDS011;61084;55.816;37.036;2022-08-21T03:12:36;50.63;;;27.40;;
72797;SDS011;61084;55.816;37.036;2022-08-21T03:15:03;45.13;;;27.27;;
72797;SDS011;61084;55.816;37.036;2022-08-21T03:17:30;48.50;;;26.42;;
72797;SDS011;61084;55.816;37.036;2022-08-21T03:19:56;50.92;;;27.48;;
72797;SDS011;61084;55.816;37.036;2022-08-21T03:22:22;44.65;;;26.80;;
72797;SDS011;61084;55.816;37.036;2022-08-21T03:24:48;46.50;;;26.75;;
72797;SDS011;61084;55.816;37.036;2022-08-21T03:27:14;48.20;;;27.38;;
72797;SDS011;61084;55.816;37.036;2022-08-21T03:32:06;47.55;;;25.27;;
72797;SDS011;61084;55.816;37.036;2022-08-21T03:34:36;46.55;;;24.05;;
72797;SDS011;61084;55.816;37.036;2022-08-21T03:37:03;51.53;;;26.55;;
72797;SDS011;61084;55.816;37.036;2022-08-21T03:39:33;45.35;;;24.85;;
72797;SDS011;61084;55.816;37.036;2022-08-21T03:42:00;46.13;;;27.67;;
72797;SDS011;61084;55.816;37.036;2022-08-21T03:44:26;45.83;;;24.73;;
72797;SDS011;61084;55.816;37.036;2022-08-21T03:46:54;44.60;;;26.00;;
72797;SDS011;61084;55.816;37.036;2022-08-21T03:49:21;48.08;;;25.67;;
72797;SDS011;61084;55.816;37.036;2022-08-21T03:51:46;49.50;;;25.52;;
72797;SDS011;61084;55.816;37.036;2022-08-21T03:54:12;44.55;;;23.58;;
72797;SDS011;61084;55.816;37.036;2022-08-21T03:56:38;43.92;;;24.17;;
72797;SDS011;61084;55.816;37.036;2022-08-21T03:59:04;45.03;;;23.80;;
72797;SDS011;61084;55.816;37.036;2022-08-21T04:01:31;39.55;;;21.60;;
72797;SDS011;61084;55.816;37.036;2022-08-21T04:03:57;40.60;;;23.13;;
72797;SDS011;61084;55.816;37.036;2022-08-21T04:06:22;42.75;;;22.80;;
72797;SDS011;61084;55.816;37.036;2022-08-21T04:08:48;35.10;;;22.63;;
72797;SDS011;61084;55.816;37.036;2022-08-21T04:11:14;37.45;;;22.27;;
72797;SDS011;61084;55.816;37.036;2022-08-21T04:13:40;41.33;;;22.77;;
72797;SDS011;61084;55.816;37.036;2022-08-21T04:16:06;38.28;;;22.48;;
72797;SDS011;61084;55.816;37.036;2022-08-21T04:18:33;38.97;;;21.10;;
72797;SDS011;61084;55.816;37.036;2022-08-21T04:21:00;35.67;;;21.15;;
72797;SDS011;61084;55.816;37.036;2022-08-21T04:23:27;31.92;;;20.85;;
72797;SDS011;61084;55.816;37.036;2022-08-21T04:25:53;38.40;;;21.17;;
72797;SDS011;61084;55.816;37.036;2022-08-21T04:28:21;41.42;;;20.95;;
72797;SDS011;61084;55.816;37.036;2022-08-21T04:30:49;33.10;;;20.23;;
72797;SDS011;61084;55.816;37.036;2022-08-21T04:33:17;36.40;;;21.20;;
72797;SDS011;61084;55.816;37.036;2022-08-21T04:35:43;36.90;;;20.77;;
72797;SDS011;61084;55.816;37.036;2022-08-21T04:38:09;36.83;;;20.00;;
72797;SDS011;61084;55.816;37.036;2022-08-21T04:40:35;35.25;;;20.25;;
72797;SDS011;61084;55.816;37.036;2022-08-21T04:45:30;37.35;;;19.48;;
72797;SDS011;61084;55.816;37.036;2022-08-21T04:47:59;44.17;;;18.55;;
72797;SDS011;61084;55.816;37.036;2022-08-21T04:50:27;33.75;;;19.10;;
72797;SDS011;61084;55.816;37.036;2022-08-21T04:53:04;38.58;;;19.25;;
72797;SDS011;61084;55.816;37.036;2022-08-21T04:55:33;35.28;;;19.45;;
72797;SDS011;61084;55.816;37.036;2022-08-21T04:57:59;35.30;;;17.40;;
72797;SDS011;61084;55.816;37.036;2022-08-21T05:00:25;34.22;;;18.65;;
72797;SDS011;61084;55.816;37.036;2022-08-21T05:02:52;33.92;;;18.52;;
72797;SDS011;61084;55.816;37.036;2022-08-21T05:05:22;30.80;;;17.98;;
72797;SDS011;61084;55.816;37.036;2022-08-21T05:07:48;33.95;;;18.52;;
72797;SDS011;61084;55.816;37.036;2022-08-21T05:10:14;34.05;;;16.33;;
72797;SDS011;61084;55.816;37.036;2022-08-21T05:12:41;34.60;;;16.60;;
72797;SDS011;61084;55.816;37.036;2022-08-21T05:15:08;31.33;;;15.50;;
72797;SDS011;61084;55.816;37.036;2022-08-21T05:17:37;33.25;;;17.98;;
72797;SDS011;61084;55.816;37.036;2022-08-21T05:20:03;30.02;;;15.55;;
72797;SDS011;61084;55.816;37.036;2022-08-21T05:22:29;26.77;;;15.40;;
72797;SDS011;61084;55.816;37.036;2022-08-21T05:24:56;32.08;;;16.50;;
72797;SDS011;61084;55.816;37.036;2022-08-21T05:27:22;28.77;;;16.75;;
72797;SDS011;61084;55.816;37.036;2022-08-21T05:29:47;27.00;;;15.07;;
72797;SDS011;61084;55.816;37.036;2022-08-21T05:32:13;27.35;;;15.73;;
72797;SDS011;61084;55.816;37.036;2022-08-21T05:34:39;22.75;;;13.80;;
72797;SDS011;61084;55.816;37.036;2022-08-21T05:37:05;25.23;;;14.75;;
72797;SDS011;61084;55.816;37.036;2022-08-21T05:39:31;26.90;;;14.05;;
72797;SDS011;61084;55.816;37.036;2022-08-21T05:41:57;27.98;;;14.43;;
72797;SDS011;61084;55.816;37.036;2022-08-21T05:44:23;25.98;;;14.65;;
72797;SDS011;61084;55.816;37.036;2022-08-21T05:46:49;28.33;;;14.48;;
72797;SDS011;61084;55.816;37.036;2022-08-21T05:49:15;25.85;;;13.88;;
72797;SDS011;61084;55.816;37.036;2022-08-21T05:51:41;28.45;;;13.63;;
72797;SDS011;61084;55.816;37.036;2022-08-21T05:54:07;28.70;;;13.50;;
72797;SDS011;61084;55.816;37.036;2022-08-21T05:56:33;23.70;;;13.90;;
72797;SDS011;61084;55.816;37.036;2022-08-21T05:58:58;24.65;;;13.13;;
72797;SDS011;61084;55.816;37.036;2022-08-21T06:01:24;23.55;;;12.40;;
72797;SDS011;61084;55.816;37.036;2022-08-21T06:03:50;19.73;;;13.25;;
72797;SDS011;61084;55.816;37.036;2022-08-21T06:06:16;22.25;;;12.30;;
72797;SDS011;61084;55.816;37.036;2022-08-21T06:08:42;24.02;;;12.02;;
72797;SDS011;61084;55.816;37.036;2022-08-21T06:11:08;21.75;;;10.93;;
72797;SDS011;61084;55.816;37.036;2022-08-21T06:13:35;23.65;;;11.68;;
72797;SDS011;61084;55.816;37.036;2022-08-21T06:16:02;21.55;;;12.32;;
72797;SDS011;61084;55.816;37.036;2022-08-21T06:18:33;29.08;;;11.90;;
72797;SDS011;61084;55.816;37.036;2022-08-21T06:21:00;27.10;;;11.77;;
72797;SDS011;61084;55.816;37.036;2022-08-21T06:23:26;21.75;;;11.60;;
72797;SDS011;61084;55.816;37.036;2022-08-21T06:25:51;23.02;;;10.80;;
72797;SDS011;61084;55.816;37.036;2022-08-21T06:28:17;17.88;;;11.23;;
72797;SDS011;61084;55.816;37.036;2022-08-21T06:30:43;23.85;;;11.48;;
72797;SDS011;61084;55.816;37.036;2022-08-21T06:33:09;22.13;;;11.20;;
72797;SDS011;61084;55.816;37.036;2022-08-21T06:35:35;23.55;;;11.80;;
72797;SDS011;61084;55.816;37.036;2022-08-21T06:38:01;19.92;;;12.27;;
72797;SDS011;61084;55.816;37.036;2022-08-21T06:40:28;18.20;;;11.40;;
72797;SDS011;61084;55.816;37.036;2022-08-21T06:42:54;24.90;;;11.73;;
72797;SDS011;61084;55.816;37.036;2022-08-21T06:45:20;19.58;;;10.52;;
72797;SDS011;61084;55.816;37.036;2022-08-21T06:47:46;25.08;;;10.32;;
72797;SDS011;61084;55.816;37.036;2022-08-21T06:52:38;24.80;;;10.65;;
72797;SDS011;61084;55.816;37.036;2022-08-21T06:55:06;17.23;;;10.48;;
72797;SDS011;61084;55.816;37.036;2022-08-21T06:57:34;18.58;;;10.30;;
72797;SDS011;61084;55.816;37.036;2022-08-21T07:00:00;17.30;;;11.13;;
72797;SDS011;61084;55.816;37.036;2022-08-21T07:02:29;20.80;;;9.57;;
72797;SDS011;61084;55.816;37.036;2022-08-21T07:07:20;20.35;;;9.57;;
72797;SDS011;61084;55.816;37.036;2022-08-21T07:09:46;20.75;;;10.40;;
72797;SDS011;61084;55.816;37.036;2022-08-21T07:14:37;23.77;;;9.88;;
72797;SDS011;61084;55.816;37.036;2022-08-21T07:19:29;19.75;;;9.50;;
72797;SDS011;61084;55.816;37.036;2022-08-21T07:24:22;18.10;;;10.02;;
72797;SDS011;61084;55.816;37.036;2022-08-21T07:26:48;18.17;;;9.30;;
72797;SDS011;61084;55.816;37.036;2022-08-21T07:31:40;23.45;;;9.07;;
72797;SDS011;61084;55.816;37.036;2022-08-21T07:36:31;18.75;;;8.90;;
72797;SDS011;61084;55.816;37.036;2022-08-21T07:41:24;19.20;;;9.30;;
72797;SDS011;61084;55.816;37.036;2022-08-21T07:43:53;18.65;;;9.30;;
72797;SDS011;61084;55.816;37.036;2022-08-21T07:48:45;19.00;;;9.43;;
72797;SDS011;61084;55.816;37.036;2022-08-21T07:53:38;13.88;;;8.85;;
72797;SDS011;61084;55.816;37.036;2022-08-21T07:56:05;18.48;;;9.55;;
72797;SDS011;61084;55.816;37.036;2022-08-21T07:58:32;20.15;;;9.27;;
72797;SDS011;61084;55.816;37.036;2022-08-21T08:00:58;18.20;;;8.30;;
72797;SDS011;61084;55.816;37.036;2022-08-21T08:05:49;15.48;;;8.30;;
72797;SDS011;61084;55.816;37.036;2022-08-21T08:08:15;20.23;;;9.30;;
72797;SDS011;61084;55.816;37.036;2022-08-21T08:10:42;16.80;;;9.45;;
72797;SDS011;61084;55.816;37.036;2022-08-21T08:13:09;15.73;;;8.20;;
72797;SDS011;61084;55.816;37.036;2022-08-21T08:18:01;18.48;;;9.48;;
72797;SDS011;61084;55.816;37.036;2022-08-21T08:22:53;19.17;;;9.15;;
72797;SDS011;61084;55.816;37.036;2022-08-21T08:25:19;21.67;;;9.73;;
72797;SDS011;61084;55.816;37.036;2022-08-21T08:27:48;20.75;;;9.88;;
72797;SDS011;61084;55.816;37.036;2022-08-21T08:30:15;18.17;;;9.95;;
72797;SDS011;61084;55.816;37.036;2022-08-21T08:32:43;18.70;;;10.25;;
72797;SDS011;61084;55.816;37.036;2022-08-21T08:35:10;22.60;;;10.55;;
72797;SDS011;61084;55.816;37.036;2022-08-21T08:37:37;19.08;;;9.13;;
72797;SDS011;61084;55.816;37.036;2022-08-21T08:40:06;19.80;;;9.50;;
72797;SDS011;61084;55.816;37.036;2022-08-21T08:42:36;20.80;;;9.68;;
72797;SDS011;61084;55.816;37.036;2022-08-21T08:47:36;24.63;;;9.65;;
72797;SDS011;61084;55.816;37.036;2022-08-21T08:50:06;21.27;;;11.10;;
72797;SDS011;61084;55.816;37.036;2022-08-21T08:53:06;24.55;;;11.07;;
72797;SDS011;61084;55.816;37.036;2022-08-21T08:55:45;21.58;;;10.88;;
72797;SDS011;61084;55.816;37.036;2022-08-21T08:58:23;21.63;;;11.38;;
72797;SDS011;61084;55.816;37.036;2022-08-21T09:00:55;21.65;;;11.20;;
72797;SDS011;61084;55.816;37.036;2022-08-21T09:03:25;25.70;;;12.05;;
72797;SDS011;61084;55.816;37.036;2022-08-21T09:08:59;15.93;;;10.50;;
72797;SDS011;61084;55.816;37.036;2022-08-21T09:12:07;21.92;;;11.48;;
72797;SDS011;61084;55.816;37.036;2022-08-21T09:23:20;24.83;;;13.45;;
72797;SDS011;61084;55.816;37.036;2022-08-21T09:26:16;22.25;;;13.60;;
72797;SDS011;61084;55.816;37.036;2022-08-21T09:28:44;21.73;;;12.63;;
72797;SDS011;61084;55.816;37.036;2022-08-21T09:31:21;20.60;;;13.45;;
72797;SDS011;61084;55.816;37.036;2022-08-21T09:33:49;25.35;;;12.88;;
72797;SDS011;61084;55.816;37.036;2022-08-21T09:36:31;28.88;;;13.25;;
72797;SDS011;61084;55.816;37.036;2022-08-21T09:39:10;30.98;;;13.45;;
72797;SDS011;61084;55.816;37.036;2022-08-21T09:41:38;30.75;;;13.15;;
72797;SDS011;61084;55.816;37.036;2022-08-21T09:44:05;24.15;;;13.25;;
72797;SDS011;61084;55.816;37.036;2022-08-21T09:46:34;25.08;;;12.73;;
72797;SDS011;61084;55.816;37.036;2022-08-21T09:49:01;21.35;;;11.98;;
72797;SDS011;61084;55.816;37.036;2022-08-21T09:51:29;21.90;;;12.73;;
72797;SDS011;61084;55.816;37.036;2022-08-21T09:56:33;22.23;;;13.23;;
72797;SDS011;61084;55.816;37.036;2022-08-21T09:59:25;24.15;;;13.85;;
72797;SDS011;61084;55.816;37.036;2022-08-21T10:01:52;22.10;;;12.70;;
72797;SDS011;61084;55.816;37.036;2022-08-21T10:04:26;22.52;;;13.45;;
72797;SDS011;61084;55.816;37.036;2022-08-21T10:07:13;34.90;;;14.88;;
72797;SDS011;61084;55.816;37.036;2022-08-21T10:09:40;21.67;;;14.18;;
72797;SDS011;61084;55.816;37.036;2022-08-21T10:12:19;23.80;;;13.63;;
72797;SDS011;61084;55.816;37.036;2022-08-21T10:18:13;28.15;;;14.52;;
72797;SDS011;61084;55.816;37.036;2022-08-21T10:23:41;28.48;;;14.38;;
72797;SDS011;61084;55.816;37.036;2022-08-21T10:26:37;24.00;;;13.35;;
72797;SDS011;61084;55.816;37.036;2022-08-21T10:29:21;23.83;;;13.32;;
72797;SDS011;61084;55.816;37.036;2022-08-21T10:31:53;27.85;;;13.57;;
72797;SDS011;61084;55.816;37.036;2022-08-21T10:34:41;23.52;;;13.48;;
72797;SDS011;61084;55.816;37.036;2022-08-21T10:37:24;25.30;;;14.02;;
72797;SDS011;61084;55.816;37.036;2022-08-21T10:43:08;22.77;;;11.68;;
72797;SDS011;61084;55.816;37.036;2022-08-21T10:46:04;19.63;;;11.07;;
72797;SDS011;61084;55.816;37.036;2022-08-21T10:51:10;28.33;;;11.27;;
72797;SDS011;61084;55.816;37.036;2022-08-21T10:56:25;19.92;;;11.23;;
72797;SDS011;61084;55.816;37.036;2022-08-21T11:01:46;19.35;;;10.20;;
72797;SDS011;61084;55.816;37.036;2022-08-21T11:04:49;29.55;;;10.60;;
72797;SDS011;61084;55.816;37.036;2022-08-21T11:07:21;21.67;;;9.60;;
72797;SDS011;61084;55.816;37.036;2022-08-21T11:09:53;19.55;;;9.60;;
72797;SDS011;61084;55.816;37.036;2022-08-21T11:12:26;21.40;;;9.23;;
72797;SDS011;61084;55.816;37.036;2022-08-21T11:23:33;17.98;;;8.63;;
72797;SDS011;61084;55.816;37.036;2022-08-21T11:26:30;21.20;;;8.43;;
72797;SDS011;61084;55.816;37.036;2022-08-21T11:29:09;21.10;;;8.25;;
72797;SDS011;61084;55.816;37.036;2022-08-21T11:34:33;16.60;;;6.65;;
72797;SDS011;61084;55.816;37.036;2022-08-21T11:45:45;15.35;;;5.13;;
72797;SDS011;61084;55.816;37.036;2022-08-21T11:51:13;14.98;;;4.18;;
72797;SDS011;61084;55.816;37.036;2022-08-21T11:56:18;10.20;;;3.90;;
72797;SDS011;61084;55.816;37.036;2022-08-21T11:58:53;16.42;;;5.43;;
72797;SDS011;61084;55.816;37.036;2022-08-21T12:11:24;11.93;;;3.10;;
72797;SDS011;61084;55.816;37.036;2022-08-21T12:19:07;8.65;;;3.08;;
72797;SDS011;61084;55.816;37.036;2022-08-21T12:24:17;25.77;;;4.43;;
72797;SDS011;61084;55.816;37.036;2022-08-21T12:26:58;16.10;;;3.97;;
72797;SDS011;61084;55.816;37.036;2022-08-21T12:29:33;12.43;;;4.10;;
72797;SDS011;61084;55.816;37.036;2022-08-21T12:32:04;8.63;;;3.38;;
72797;SDS011;61084;55.816;37.036;2022-08-21T12:40:49;12.00;;;4.20;;
72797;SDS011;61084;55.816;37.036;2022-08-21T12:43:20;14.98;;;5.13;;
72797;SDS011;61084;55.816;37.036;2022-08-21T12:46:00;10.38;;;4.05;;
72797;SDS011;61084;55.816;37.036;2022-08-21T12:48:39;10.98;;;3.90;;
72797;SDS011;61084;55.816;37.036;2022-08-21T12:51:15;10.98;;;3.78;;
72797;SDS011;61084;55.816;37.036;2022-08-21T12:56:17;14.48;;;3.22;;
72797;SDS011;61084;55.816;37.036;2022-08-21T12:59:07;14.10;;;3.70;;
72797;SDS011;61084;55.816;37.036;2022-08-21T13:01:43;12.13;;;2.92;;
72797;SDS011;61084;55.816;37.036;2022-08-21T13:06:47;17.42;;;4.22;;
72797;SDS011;61084;55.816;37.036;2022-08-21T13:09:16;10.23;;;3.00;;
72797;SDS011;61084;55.816;37.036;2022-08-21T13:11:46;14.38;;;3.08;;
72797;SDS011;61084;55.816;37.036;2022-08-21T13:14:15;13.63;;;3.10;;
72797;SDS011;61084;55.816;37.036;2022-08-21T13:16:47;12.50;;;2.85;;
72797;SDS011;61084;55.816;37.036;2022-08-21T13:21:42;13.52;;;2.63;;
72797;SDS011;61084;55.816;37.036;2022-08-21T13:24:14;8.38;;;2.03;;
72797;SDS011;61084;55.816;37.036;2022-08-21T13:26:40;13.05;;;2.20;;
72797;SDS011;61084;55.816;37.036;2022-08-21T13:29:07;12.50;;;2.38;;
72797;SDS011;61084;55.816;37.036;2022-08-21T13:31:36;8.25;;;2.38;;
72797;SDS011;61084;55.816;37.036;2022-08-21T13:34:08;8.48;;;2.50;;
72797;SDS011;61084;55.816;37.036;2022-08-21T13:36:37;10.77;;;1.95;;
72797;SDS011;61084;55.816;37.036;2022-08-21T13:39:14;11.65;;;2.10;;
72797;SDS011;61084;55.816;37.036;2022-08-21T13:41:44;14.27;;;2.10;;
72797;SDS011;61084;55.816;37.036;2022-08-21T13:44:20;16.50;;;2.13;;
72797;SDS011;61084;55.816;37.036;2022-08-21T13:46:56;10.60;;;1.70;;
72797;SDS011;61084;55.816;37.036;2022-08-21T13:49:34;9.93;;;2.05;;
72797;SDS011;61084;55.816;37.036;2022-08-21T13:52:03;8.95;;;1.95;;
72797;SDS011;61084;55.816;37.036;2022-08-21T13:54:39;13.93;;;2.53;;
72797;SDS011;61084;55.816;37.036;2022-08-21T13:57:16;10.38;;;2.28;;
72797;SDS011;61084;55.816;37.036;2022-08-21T13:59:43;13.05;;;2.50;;
72797;SDS011;61084;55.816;37.036;2022-08-21T14:04:50;13.40;;;2.47;;
72797;SDS011;61084;55.816;37.036;2022-08-21T14:07:20;15.10;;;2.30;;
72797;SDS011;61084;55.816;37.036;2022-08-21T14:09:53;14.02;;;2.90;;
72797;SDS011;61084;55.816;37.036;2022-08-21T14:12:26;9.88;;;2.38;;
72797;SDS011;61084;55.816;37.036;2022-08-21T14:15:01;16.77;;;2.42;;
72797;SDS011;61084;55.816;37.036;2022-08-21T14:17:31;14.35;;;2.85;;
72797;SDS011;61084;55.816;37.036;2022-08-21T14:19:59;14.68;;;3.22;;
72797;SDS011;61084;55.816;37.036;2022-08-21T14:25:51;12.98;;;3.42;;
72797;SDS011;61084;55.816;37.036;2022-08-21T14:28:31;11.88;;;2.80;;
72797;SDS011;61084;55.816;37.036;2022-08-21T14:30:57;15.18;;;3.13;;
72797;SDS011;61084;55.816;37.036;2022-08-21T14:33:26;16.60;;;3.25;;
72797;SDS011;61084;55.816;37.036;2022-08-21T14:35:54;14.45;;;3.50;;
72797;SDS011;61084;55.816;37.036;2022-08-21T14:38:21;12.82;;;3.42;;
72797;SDS011;61084;55.816;37.036;2022-08-21T14:40:51;17.05;;;3.40;;
72797;SDS011;61084;55.816;37.036;2022-08-21T14:43:19;13.05;;;2.97;;
72797;SDS011;61084;55.816;37.036;2022-08-21T14:45:45;7.78;;;2.90;;
72797;SDS011;61084;55.816;37.036;2022-08-21T14:48:12;12.32;;;3.50;;
72797;SDS011;61084;55.816;37.036;2022-08-21T14:50:38;10.35;;;3.15;;
72797;SDS011;61084;55.816;37.036;2022-08-21T14:53:05;11.75;;;2.65;;
72797;SDS011;61084;55.816;37.036;2022-08-21T14:58:17;15.10;;;3.03;;
72797;SDS011;61084;55.816;37.036;2022-08-21T15:00:43;14.10;;;2.75;;
72797;SDS011;61084;55.816;37.036;2022-08-21T15:05:35;13.23;;;2.83;;
72797;SDS011;61084;55.816;37.036;2022-08-21T15:10:27;11.20;;;2.50;;
72797;SDS011;61084;55.816;37.036;2022-08-21T15:12:54;9.23;;;2.25;;
72797;SDS011;61084;55.816;37.036;2022-08-21T15:17:46;12.05;;;2.10;;
72797;SDS011;61084;55.816;37.036;2022-08-21T15:22:37;14.57;;;2.50;;
72797;SDS011;61084;55.816;37.036;2022-08-21T15:27:29;16.08;;;2.63;;
72797;SDS011;61084;55.816;37.036;2022-08-21T15:32:22;7.72;;;2.47;;
72797;SDS011;61084;55.816;37.036;2022-08-21T15:34:50;9.70;;;2.72;;
72797;SDS011;61084;55.816;37.036;2022-08-21T15:37:17;13.05;;;3.08;;
72797;SDS011;61084;55.816;37.036;2022-08-21T15:39:43;9.40;;;2.80;;
72797;SDS011;61084;55.816;37.036;2022-08-21T15:42:09;10.13;;;3.08;;
72797;SDS011;61084;55.816;37.036;2022-08-21T15:44:38;9.65;;;3.25;;
72797;SDS011;61084;55.816;37.036;2022-08-21T15:47:06;9.70;;;3.40;;
72797;SDS011;61084;55.816;37.036;2022-08-21T15:49:40;9.75;;;4.13;;
72797;SDS011;61084;55.816;37.036;2022-08-21T15:52:17;10.00;;;3.67;;
72797;SDS011;61084;55.816;37.036;2022-08-21T15:54:45;9.95;;;4.28;;
72797;SDS011;61084;55.816;37.036;2022-08-21T15:57:13;11.75;;;3.55;;
72797;SDS011;61084;55.816;37.036;2022-08-21T15:59:42;12.95;;;3.88;;
72797;SDS011;61084;55.816;37.036;2022-08-21T16:02:22;7.63;;;3.50;;
72797;SDS011;61084;55.816;37.036;2022-08-21T16:04:51;16.67;;;4.10;;
72797;SDS011;61084;55.816;37.036;2022-08-21T16:09:42;9.65;;;3.30;;
72797;SDS011;61084;55.816;37.036;2022-08-21T16:14:36;10.52;;;3.78;;
72797;SDS011;61084;55.816;37.036;2022-08-21T16:17:06;6.35;;;3.28;;
72797;SDS011;61084;55.816;37.036;2022-08-21T16:19:32;18.08;;;7.35;;
72797;SDS011;61084;55.816;37.036;2022-08-21T16:22:00;49.78;;;17.33;;
72797;SDS011;61084;55.816;37.036;2022-08-21T16:24:26;105.97;;;39.10;;
72797;SDS011;61084;55.816;37.036;2022-08-21T16:26:51;58.97;;;23.65;;
72797;SDS011;61084;55.816;37.036;2022-08-21T16:29:17;14.13;;;5.03;;
72797;SDS011;61084;55.816;37.036;2022-08-21T16:31:44;13.68;;;4.05;;
72797;SDS011;61084;55.816;37.036;2022-08-21T16:34:11;9.88;;;3.97;;
72797;SDS011;61084;55.816;37.036;2022-08-21T16:36:42;10.10;;;3.72;;
72797;SDS011;61084;55.816;37.036;2022-08-21T16:39:08;10.20;;;3.10;;
72797;SDS011;61084;55.816;37.036;2022-08-21T16:41:33;7.43;;;3.22;;
72797;SDS011;61084;55.816;37.036;2022-08-21T16:44:01;12.55;;;2.75;;
72797;SDS011;61084;55.816;37.036;2022-08-21T16:46:30;10.32;;;2.78;;
72797;SDS011;61084;55.816;37.036;2022-08-21T16:49:00;5.57;;;2.65;;
72797;SDS011;61084;55.816;37.036;2022-08-21T16:51:27;13.75;;;2.60;;
72797;SDS011;61084;55.816;37.036;2022-08-21T16:53:58;6.40;;;2.53;;
72797;SDS011;61084;55.816;37.036;2022-08-21T16:56:25;8.32;;;2.33;;
72797;SDS011;61084;55.816;37.036;2022-08-21T16:58:52;8.07;;;2.53;;
72797;SDS011;61084;55.816;37.036;2022-08-21T17:01:20;7.60;;;2.58;;
72797;SDS011;61084;55.816;37.036;2022-08-21T17:03:49;8.48;;;2.15;;